地図

経路データ

SID SEASON NUMBER BASIN SUBBASIN NAME ISO_TIME NATURE LAT LON WMO_WIND WMO_PRES WMO_AGENCY TRACK_TYPE DIST2LAND LANDFALL IFLAG USA_AGENCY USA_ATCF_ID USA_LAT USA_LON USA_RECORD USA_STATUS USA_WIND USA_PRES USA_SSHS USA_R34_NE USA_R34_SE USA_R34_SW USA_R34_NW USA_R50_NE USA_R50_SE USA_R50_SW USA_R50_NW USA_R64_NE USA_R64_SE USA_R64_SW USA_R64_NW USA_POCI USA_ROCI USA_RMW USA_EYE TOKYO_LAT TOKYO_LON TOKYO_GRADE TOKYO_WIND TOKYO_PRES TOKYO_R50_DIR TOKYO_R50_LONG TOKYO_R50_SHORT TOKYO_R30_DIR TOKYO_R30_LONG TOKYO_R30_SHORT TOKYO_LAND CMA_LAT CMA_LON CMA_CAT CMA_WIND CMA_PRES HKO_LAT HKO_LON HKO_CAT HKO_WIND HKO_PRES NEWDELHI_LAT NEWDELHI_LON NEWDELHI_GRADE NEWDELHI_WIND NEWDELHI_PRES NEWDELHI_CI NEWDELHI_DP NEWDELHI_POCI REUNION_LAT REUNION_LON REUNION_TYPE REUNION_WIND REUNION_PRES REUNION_TNUM REUNION_CI REUNION_RMW REUNION_R34_NE REUNION_R34_SE REUNION_R34_SW REUNION_R34_NW REUNION_R50_NE REUNION_R50_SE REUNION_R50_SW REUNION_R50_NW REUNION_R64_NE REUNION_R64_SE REUNION_R64_SW REUNION_R64_NW BOM_LAT BOM_LON BOM_TYPE BOM_WIND BOM_PRES BOM_TNUM BOM_CI BOM_RMW BOM_R34_NE BOM_R34_SE BOM_R34_SW BOM_R34_NW BOM_R50_NE BOM_R50_SE BOM_R50_SW BOM_R50_NW BOM_R64_NE BOM_R64_SE BOM_R64_SW BOM_R64_NW BOM_ROCI BOM_POCI BOM_EYE BOM_POS_METHOD BOM_PRES_METHOD NADI_LAT NADI_LON NADI_CAT NADI_WIND NADI_PRES WELLINGTON_LAT WELLINGTON_LON WELLINGTON_WIND WELLINGTON_PRES DS824_LAT DS824_LON DS824_STAGE DS824_WIND DS824_PRES TD9636_LAT TD9636_LON TD9636_STAGE TD9636_WIND TD9636_PRES TD9635_LAT TD9635_LON TD9635_WIND TD9635_PRES TD9635_ROCI NEUMANN_LAT NEUMANN_LON NEUMANN_CLASS NEUMANN_WIND NEUMANN_PRES MLC_LAT MLC_LON MLC_CLASS MLC_WIND MLC_PRES USA_GUST BOM_GUST BOM_GUST_PER REUNION_GUST REUNION_GUST_PER USA_SEAHGT USA_SEARAD_NE USA_SEARAD_SE USA_SEARAD_SW USA_SEARAD_NW STORM_SPEED STORM_DIR
1956291N13154 1956 101 WP MM NOT_NAMED 1956-10-16 12:00:00 TS 12.7000 153.900 main 1756 1751 O________OOO__ jtwc_wp WP181956 12.7000 153.900 25 -1 12.7000 153.900 TC 25 12.7000 153.900 1 25 12.7000 153.900 25 1008 60 11 281
1956291N13154 1956 101 WP MM NOT_NAMED 1956-10-16 15:00:00 TS 12.8061 153.334 main 1756 1753 P________PPP__ WP181956 12.7977 153.343 27 -1 12.7977 153.343 TC 27 12.8310 153.310 1 28 12.7977 153.343 27 1007 90 11 281
1956291N13154 1956 101 WP MM NOT_NAMED 1956-10-16 18:00:00 TS 12.9122 152.786 main 1760 1757 O________OPO__ jtwc_wp WP181956 12.9000 152.800 30 -1 12.9000 152.800 TC 30 12.9490 152.746 1 32 12.9000 152.800 30 1006 120 11 281
1956291N13154 1956 101 WP MM NOT_NAMED 1956-10-16 21:00:00 TS 13.0162 152.272 main 1765 1763 P________PPP__ WP181956 13.0074 152.285 35 0 13.0074 152.285 TC 35 13.0424 152.234 1 36 13.0074 152.285 35 1005 120 10 281
1956291N13154 1956 101 WP MM NOT_NAMED 1956-10-17 00:00:00 TS 13.1000 151.800 main 1770 1762 O________OOO__ jtwc_wp WP181956 13.1000 151.800 40 0 13.1000 151.800 TC 40 13.1000 151.800 2 40 13.1000 151.800 40 1005 120 9 279
1956291N13154 1956 101 WP MM NOT_NAMED 1956-10-17 03:00:00 TS 13.1637 151.322 main 1767 1759 P________PPP__ WP181956 13.1801 151.275 37 0 13.1801 151.275 TC 37 13.1145 151.464 2 37 13.1801 151.275 37 1004 150 8 275
1956291N13154 1956 101 WP MM NOT_NAMED 1956-10-17 06:00:00 TS 13.1736 150.979 main 1759 1746 O________OPO__ jtwc_wp WP181956 13.2000 150.900 35 0 13.2000 150.900 TC 35 13.0944 151.215 2 35 13.2000 150.900 35 1003 180 4 262
1956291N13154 1956 101 WP MM NOT_NAMED 1956-10-17 09:00:00 TS 13.0992 150.871 main 1746 1735 P________PPP__ WP181956 13.1149 150.817 32 -1 13.1149 150.817 TC 32 13.0522 151.033 2 32 13.1149 150.817 32 1003 180 2 204
1956291N13154 1956 101 WP MM NOT_NAMED 1956-10-17 12:00:00 TS 13.0000 150.900 main 1735 1727 O________OOO__ jtwc_wp WP181956 13.0000 150.900 30 -1 13.0000 150.900 TC 30 13.0000 150.900 1 30 13.0000 150.900 30 1003 180 2 141
1956291N13154 1956 101 WP MM NOT_NAMED 1956-10-17 15:00:00 TS 12.9388 151.006 main 1727 1727 P________PPP__ WP181956 12.9425 151.038 30 -1 12.9425 151.038 TC 30 12.9276 150.912 1 27 12.9425 151.038 30 1003 180 2 125
1956291N13154 1956 101 WP MM NOT_NAMED 1956-10-17 18:00:00 TS 12.8882 151.061 main 1729 1716 O________OPO__ jtwc_wp WP181956 12.9000 151.100 30 -1 12.9000 151.100 TC 30 12.8529 150.944 1 25 12.9000 151.100 30 1004 180 1 199
1956291N13154 1956 101 WP MM NOT_NAMED 1956-10-17 21:00:00 TS 12.8207 150.970 main 1716 1706 P________PPP__ WP181956 12.8270 151.000 25 -1 12.8270 151.000 TC 25 12.8019 150.880 1 22 12.8270 151.000 25 1004 150 5 259
1956291N13154 1956 101 WP MM NOT_NAMED 1956-10-18 00:00:00 TS 12.8000 150.600 main 1706 1693 O________OOO__ jtwc_wp WP181956 12.8000 150.600 20 -1 12.8000 150.600 TC 20 12.8000 150.600 1 20 12.8000 150.600 20 1005 120 11 272
1956291N13154 1956 101 WP MM NOT_NAMED 1956-10-18 03:00:00 TS 12.8691 149.821 main 1701 1692 P________PPP__ WP181956 12.8705 149.790 22 -1 12.8705 149.790 TC 22 12.8649 149.915 1 21 12.8705 149.790 22 1004 120 17 277
1956291N13154 1956 101 WP MM NOT_NAMED 1956-10-18 06:00:00 TS 12.9946 148.854 main 1699 1696 O________OPO__ jtwc_wp WP181956 13.0000 148.800 25 -1 13.0000 148.800 TC 25 12.9785 149.015 1 22 13.0000 148.800 25 1004 120 19 278
1956291N13154 1956 101 WP MM NOT_NAMED 1956-10-18 09:00:00 TS 13.1387 147.943 main 1703 1703 P________PPP__ WP181956 13.1424 147.913 25 -1 13.1424 147.913 TC 25 13.1275 148.033 1 23 13.1424 147.913 25 1003 120 17 280
1956291N13154 1956 101 WP MM NOT_NAMED 1956-10-18 12:00:00 TS 13.3000 147.100 main 1725 1725 O________OOO__ jtwc_wp WP181956 13.3000 147.100 25 -1 13.3000 147.100 TC 25 13.3000 147.100 1 25 13.3000 147.100 25 1003 120 15 281
1956291N13154 1956 101 WP MM NOT_NAMED 1956-10-18 15:00:00 TS 13.4299 146.413 main 1736 1736 P________PPP__ WP181956 13.4346 146.412 27 -1 13.4346 146.412 TC 27 13.4158 146.414 1 26 13.4346 146.412 27 1001 120 13 283
1956291N13154 1956 101 WP MM NOT_NAMED 1956-10-18 18:00:00 TS 13.5907 145.799 main 1761 1761 O________OPO__ jtwc_wp WP181956 13.6000 145.800 30 -1 13.6000 145.800 TC 30 13.5628 145.795 1 27 13.6000 145.800 30 1000 120 12 287
1956291N13154 1956 101 WP MM NOT_NAMED 1956-10-18 21:00:00 TS 13.7925 145.212 main 1788 1788 P________PPP__ WP181956 13.7971 145.215 30 -1 13.7971 145.215 TC 30 13.7785 145.204 1 28 13.7971 145.215 30 999 120 13 294
1956291N13154 1956 101 WP MM NOT_NAMED 1956-10-19 00:00:00 TS 14.1000 144.600 main 1828 1828 O________OOO__ jtwc_wp WP181956 14.1000 144.600 30 -1 14.1000 144.600 TC 30 14.1000 144.600 1 30 14.1000 144.600 30 998 120 15 300
1956291N13154 1956 101 WP MM NOT_NAMED 1956-10-19 03:00:00 TS 14.5431 143.881 main 1883 1883 P________PPP__ WP181956 14.5401 143.857 30 -1 14.5401 143.857 TC 30 14.5520 143.951 1 28 14.5401 143.857 30 998 120 17 305
1956291N13154 1956 101 WP MM NOT_NAMED 1956-10-19 06:00:00 TS 15.1021 143.132 main 1929 1884 O________OPO__ jtwc_wp WP181956 15.1000 143.100 30 -1 15.1000 143.100 TC 30 15.1103 143.260 1 27 15.1000 143.100 30 999 120 18 312
1956291N13154 1956 101 WP MM NOT_NAMED 1956-10-19 09:00:00 TS 15.7213 142.538 main 1876 1826 P________PPP__ WP181956 15.7184 142.538 27 -1 15.7184 142.538 TC 27 15.7385 142.539 1 26 15.7184 142.538 27 1001 90 18 315
1956291N13154 1956 101 WP MM NOT_NAMED 1956-10-19 12:00:00 TS 16.4000 141.800 main 1818 1724 O________OOO__ jtwc_wp WP181956 16.4000 141.800 25 -1 16.4000 141.800 TC 25 16.4000 141.800 1 25 16.4000 141.800 25 1003 60 23 307
1956291N13154 1956 101 WP MM NOT_NAMED 1956-10-19 15:00:00 TS 17.1009 140.598 main 1714 1599 P________P_P__ WP181956 17.1009 140.598 25 -1 17.1009 140.598 TC 25 1 17.1009 140.598 25 1004 60 29 298
1956291N13154 1956 101 WP MM NOT_NAMED 1956-10-19 18:00:00 TS 17.8000 139.100 main 1589 O________O_O__ jtwc_wp WP181956 17.8000 139.100 25 -1 17.8000 139.100 TC 25 1 17.8000 139.100 25 1005 60 32 296

デジタル台風データ・検索

IBTrACS Databaseについて

本データベースは、米国NOAAが公開する1842年以降の世界の熱帯低気圧のベストトラックデータアーカイブInternational Best Track Archive for Climate Stewardship (IBTrACS)を、ウェブで閲覧しやすい形式に変換したものです。

最終更新日:2021-12-03